sensor_id;sensor_type;location;lat;lon;timestamp;pressure;altitude;pressure_sealevel;temperature;humidity
19208;BME280;9737;59.466;18.036;2023-07-20T00:00:12;98328.53;;;13.91;54.68
19208;BME280;9737;59.466;18.036;2023-07-20T00:02:40;98337.22;;;13.93;54.75
19208;BME280;9737;59.466;18.036;2023-07-20T00:05:08;98321.88;;;13.87;54.50
19208;BME280;9737;59.466;18.036;2023-07-20T00:07:37;98317.22;;;13.89;54.13
19208;BME280;9737;59.466;18.036;2023-07-20T00:10:06;98288.91;;;13.80;54.46
19208;BME280;9737;59.466;18.036;2023-07-20T00:12:34;98284.41;;;13.81;54.79
19208;BME280;9737;59.466;18.036;2023-07-20T00:15:02;98265.81;;;13.73;54.90
19208;BME280;9737;59.466;18.036;2023-07-20T00:17:30;98256.97;;;13.72;54.83
19208;BME280;9737;59.466;18.036;2023-07-20T00:19:58;98254.28;;;13.72;54.67
19208;BME280;9737;59.466;18.036;2023-07-20T00:22:26;98248.31;;;13.70;54.78
19208;BME280;9737;59.466;18.036;2023-07-20T00:24:55;98230.38;;;13.64;54.83
19208;BME280;9737;59.466;18.036;2023-07-20T00:27:23;98225.03;;;13.64;54.78
19208;BME280;9737;59.466;18.036;2023-07-20T00:29:51;98228.72;;;13.63;55.08
19208;BME280;9737;59.466;18.036;2023-07-20T00:32:19;98244.16;;;13.68;55.19
19208;BME280;9737;59.466;18.036;2023-07-20T00:34:47;98223.38;;;13.63;55.02
19208;BME280;9737;59.466;18.036;2023-07-20T00:37:14;98222.53;;;13.62;54.82
19208;BME280;9737;59.466;18.036;2023-07-20T00:39:42;98202.72;;;13.57;55.27
19208;BME280;9737;59.466;18.036;2023-07-20T00:42:11;98193.06;;;13.56;55.06
19208;BME280;9737;59.466;18.036;2023-07-20T00:44:39;98190.75;;;13.53;55.25
19208;BME280;9737;59.466;18.036;2023-07-20T00:47:07;98188.09;;;13.53;55.25
19208;BME280;9737;59.466;18.036;2023-07-20T00:49:35;98192.41;;;13.54;55.16
19208;BME280;9737;59.466;18.036;2023-07-20T00:52:03;98183.75;;;13.52;55.23
19208;BME280;9737;59.466;18.036;2023-07-20T00:54:33;98198.41;;;13.56;55.42
19208;BME280;9737;59.466;18.036;2023-07-20T00:57:02;98208.06;;;13.57;55.47
19208;BME280;9737;59.466;18.036;2023-07-20T00:59:31;98243.53;;;13.66;55.23
19208;BME280;9737;59.466;18.036;2023-07-20T01:01:59;98257.16;;;13.71;55.60
19208;BME280;9737;59.466;18.036;2023-07-20T01:04:27;98253.66;;;13.70;55.33
19208;BME280;9737;59.466;18.036;2023-07-20T01:06:58;98260.00;;;13.69;55.54
19208;BME280;9737;59.466;18.036;2023-07-20T01:09:33;98242.72;;;13.65;55.61
19208;BME280;9737;59.466;18.036;2023-07-20T01:12:06;98248.03;;;13.65;55.90
19208;BME280;9737;59.466;18.036;2023-07-20T01:14:36;98249.69;;;13.66;55.78
19208;BME280;9737;59.466;18.036;2023-07-20T01:17:05;98269.69;;;13.70;55.99
19208;BME280;9737;59.466;18.036;2023-07-20T01:19:32;98269.03;;;13.68;55.73
19208;BME280;9737;59.466;18.036;2023-07-20T01:22:03;98269.03;;;13.68;55.85
19208;BME280;9737;59.466;18.036;2023-07-20T01:25:00;98237.72;;;13.62;55.82
19208;BME280;9737;59.466;18.036;2023-07-20T01:27:58;98223.91;;;13.58;55.54
19208;BME280;9737;59.466;18.036;2023-07-20T01:30:46;98217.91;;;13.56;55.95
19208;BME280;9737;59.466;18.036;2023-07-20T01:33:20;98231.06;;;13.58;56.10
19208;BME280;9737;59.466;18.036;2023-07-20T01:35:54;98213.59;;;13.55;56.14
19208;BME280;9737;59.466;18.036;2023-07-20T01:38:24;98241.41;;;13.61;56.19
19208;BME280;9737;59.466;18.036;2023-07-20T01:40:52;98240.41;;;13.62;56.46
19208;BME280;9737;59.466;18.036;2023-07-20T01:43:20;98238.94;;;13.59;56.46
19208;BME280;9737;59.466;18.036;2023-07-20T01:45:48;98242.06;;;13.63;56.39
19208;BME280;9737;59.466;18.036;2023-07-20T01:48:16;98250.06;;;13.63;56.15
19208;BME280;9737;59.466;18.036;2023-07-20T01:50:45;98250.06;;;13.63;56.32
19208;BME280;9737;59.466;18.036;2023-07-20T01:53:13;98246.56;;;13.62;56.42
19208;BME280;9737;59.466;18.036;2023-07-20T01:55:41;98279.34;;;13.71;56.53
19208;BME280;9737;59.466;18.036;2023-07-20T01:58:09;98251.09;;;13.62;56.48
19208;BME280;9737;59.466;18.036;2023-07-20T02:00:37;98225.47;;;13.53;56.72
19208;BME280;9737;59.466;18.036;2023-07-20T02:03:05;98234.56;;;13.58;56.57
19208;BME280;9737;59.466;18.036;2023-07-20T02:05:33;98252.09;;;13.61;56.62
19208;BME280;9737;59.466;18.036;2023-07-20T02:08:03;98224.44;;;13.54;56.70
19208;BME280;9737;59.466;18.036;2023-07-20T02:10:31;98215.81;;;13.52;56.80
19208;BME280;9737;59.466;18.036;2023-07-20T02:12:59;98207.34;;;13.48;56.66
19208;BME280;9737;59.466;18.036;2023-07-20T02:15:27;98205.50;;;13.49;57.07
19208;BME280;9737;59.466;18.036;2023-07-20T02:17:55;98172.72;;;13.40;56.68
19208;BME280;9737;59.466;18.036;2023-07-20T02:20:23;98142.47;;;13.33;56.82
19208;BME280;9737;59.466;18.036;2023-07-20T02:22:51;98129.66;;;13.28;57.15
19208;BME280;9737;59.466;18.036;2023-07-20T02:25:20;98102.06;;;13.21;57.05
19208;BME280;9737;59.466;18.036;2023-07-20T02:27:48;98062.09;;;13.13;56.99
19208;BME280;9737;59.466;18.036;2023-07-20T02:30:16;98037.38;;;13.05;56.99
19208;BME280;9737;59.466;18.036;2023-07-20T02:32:44;98026.88;;;13.03;57.04
19208;BME280;9737;59.466;18.036;2023-07-20T02:35:15;97991.66;;;12.93;57.32
19208;BME280;9737;59.466;18.036;2023-07-20T02:37:43;97954.59;;;12.83;57.31
19208;BME280;9737;59.466;18.036;2023-07-20T02:40:11;97932.81;;;12.80;57.25
19208;BME280;9737;59.466;18.036;2023-07-20T02:42:40;97894.94;;;12.69;57.33
19208;BME280;9737;59.466;18.036;2023-07-20T02:45:10;97881.34;;;12.64;57.31
19208;BME280;9737;59.466;18.036;2023-07-20T02:47:37;97871.88;;;12.62;57.29
19208;BME280;9737;59.466;18.036;2023-07-20T02:50:07;97840.84;;;12.54;57.41
19208;BME280;9737;59.466;18.036;2023-07-20T02:52:35;97809.69;;;12.40;57.52
19208;BME280;9737;59.466;18.036;2023-07-20T02:55:04;97840.22;;;12.52;57.60
19208;BME280;9737;59.466;18.036;2023-07-20T02:57:32;97820.28;;;12.48;57.62
19208;BME280;9737;59.466;18.036;2023-07-20T03:00:02;97841.84;;;12.53;57.56
19208;BME280;9737;59.466;18.036;2023-07-20T03:02:30;97839.00;;;12.55;57.77
19208;BME280;9737;59.466;18.036;2023-07-20T03:04:58;97859.75;;;12.59;57.53
19208;BME280;9737;59.466;18.036;2023-07-20T03:07:28;97880.72;;;12.62;57.80
19208;BME280;9737;59.466;18.036;2023-07-20T03:09:56;97885.03;;;12.63;57.96
19208;BME280;9737;59.466;18.036;2023-07-20T03:12:24;97892.66;;;12.66;57.59
19208;BME280;9737;59.466;18.036;2023-07-20T03:14:52;97886.69;;;12.64;58.05
19208;BME280;9737;59.466;18.036;2023-07-20T03:17:21;97895.31;;;12.66;58.15
19208;BME280;9737;59.466;18.036;2023-07-20T03:19:49;97917.91;;;12.70;58.04
19208;BME280;9737;59.466;18.036;2023-07-20T03:22:17;97925.56;;;12.74;58.17
19208;BME280;9737;59.466;18.036;2023-07-20T03:24:45;97943.69;;;12.78;58.24
19208;BME280;9737;59.466;18.036;2023-07-20T03:27:13;97995.72;;;12.89;58.20
19208;BME280;9737;59.466;18.036;2023-07-20T03:29:41;98023.28;;;12.96;58.41
19208;BME280;9737;59.466;18.036;2023-07-20T03:32:10;98035.41;;;12.98;58.28
19208;BME280;9737;59.466;18.036;2023-07-20T03:34:40;98043.09;;;13.01;58.60
19208;BME280;9737;59.466;18.036;2023-07-20T03:37:08;98082.16;;;13.09;58.67
19208;BME280;9737;59.466;18.036;2023-07-20T03:39:36;98075.19;;;13.08;58.65
19208;BME280;9737;59.466;18.036;2023-07-20T03:42:04;98063.13;;;12.97;58.59
19208;BME280;9737;59.466;18.036;2023-07-20T03:44:33;98082.16;;;13.09;58.60
19208;BME280;9737;59.466;18.036;2023-07-20T03:47:01;98109.75;;;13.16;58.60
19208;BME280;9737;59.466;18.036;2023-07-20T03:49:30;98148.69;;;13.25;58.75
19208;BME280;9737;59.466;18.036;2023-07-20T03:52:00;98173.84;;;13.31;59.05
19208;BME280;9737;59.466;18.036;2023-07-20T03:54:29;98183.34;;;13.33;59.08
19208;BME280;9737;59.466;18.036;2023-07-20T03:56:57;98205.78;;;13.39;59.04
19208;BME280;9737;59.466;18.036;2023-07-20T03:59:27;98222.25;;;13.43;59.34
19208;BME280;9737;59.466;18.036;2023-07-20T04:01:55;98223.00;;;13.37;59.08
19208;BME280;9737;59.466;18.036;2023-07-20T04:04:23;98262.22;;;13.51;59.43
19208;BME280;9737;59.466;18.036;2023-07-20T04:06:50;98281.19;;;13.56;59.22
19208;BME280;9737;59.466;18.036;2023-07-20T04:09:20;98308.84;;;13.63;59.44
19208;BME280;9737;59.466;18.036;2023-07-20T04:11:47;98325.50;;;13.65;59.33
19208;BME280;9737;59.466;18.036;2023-07-20T04:14:15;98385.72;;;13.82;59.75
19208;BME280;9737;59.466;18.036;2023-07-20T04:16:46;98442.44;;;13.92;59.68
19208;BME280;9737;59.466;18.036;2023-07-20T04:19:14;98469.06;;;14.01;59.91
19208;BME280;9737;59.466;18.036;2023-07-20T04:21:42;98483.72;;;14.05;59.64
19208;BME280;9737;59.466;18.036;2023-07-20T04:24:10;98496.53;;;14.09;59.79
19208;BME280;9737;59.466;18.036;2023-07-20T04:26:39;98520.88;;;14.14;59.77
19208;BME280;9737;59.466;18.036;2023-07-20T04:29:07;98575.56;;;14.26;60.21
19208;BME280;9737;59.466;18.036;2023-07-20T04:31:34;98567.09;;;14.23;60.12
19208;BME280;9737;59.466;18.036;2023-07-20T04:34:02;98612.09;;;14.34;59.93
19208;BME280;9737;59.466;18.036;2023-07-20T04:36:30;98633.97;;;14.38;60.34
19208;BME280;9737;59.466;18.036;2023-07-20T04:38:58;98643.13;;;14.43;60.16
19208;BME280;9737;59.466;18.036;2023-07-20T04:41:26;98678.03;;;14.50;60.43
19208;BME280;9737;59.466;18.036;2023-07-20T04:43:56;98733.41;;;14.64;60.51
19208;BME280;9737;59.466;18.036;2023-07-20T04:46:23;98746.41;;;14.67;60.76
19208;BME280;9737;59.466;18.036;2023-07-20T04:48:52;98747.25;;;14.68;60.63
19208;BME280;9737;59.466;18.036;2023-07-20T04:51:20;98763.31;;;14.68;60.51
19208;BME280;9737;59.466;18.036;2023-07-20T04:53:49;98815.06;;;14.83;60.63
19208;BME280;9737;59.466;18.036;2023-07-20T04:56:17;98840.44;;;14.87;60.51
19208;BME280;9737;59.466;18.036;2023-07-20T04:58:45;98848.09;;;14.90;60.64
19208;BME280;9737;59.466;18.036;2023-07-20T05:01:14;98929.97;;;15.07;60.82
19208;BME280;9737;59.466;18.036;2023-07-20T05:03:42;99008.81;;;15.28;61.28
19208;BME280;9737;59.466;18.036;2023-07-20T05:06:11;98998.66;;;15.23;60.94
19208;BME280;9737;59.466;18.036;2023-07-20T05:08:39;98987.94;;;15.23;61.32
19208;BME280;9737;59.466;18.036;2023-07-20T05:11:06;98966.41;;;15.16;61.07
19208;BME280;9737;59.466;18.036;2023-07-20T05:13:35;99010.84;;;15.26;61.47
19208;BME280;9737;59.466;18.036;2023-07-20T05:16:03;99011.84;;;15.25;61.29
19208;BME280;9737;59.466;18.036;2023-07-20T05:18:32;99011.50;;;15.28;61.26
19208;BME280;9737;59.466;18.036;2023-07-20T05:21:00;99038.75;;;15.31;61.23
19208;BME280;9737;59.466;18.036;2023-07-20T05:23:28;99080.59;;;15.40;61.45
19208;BME280;9737;59.466;18.036;2023-07-20T05:25:56;99172.59;;;15.64;61.28
19208;BME280;9737;59.466;18.036;2023-07-20T05:28:24;99222.09;;;15.76;61.75
19208;BME280;9737;59.466;18.036;2023-07-20T05:30:53;99184.97;;;15.65;61.67
19208;BME280;9737;59.466;18.036;2023-07-20T05:33:21;99169.25;;;15.62;61.55
19208;BME280;9737;59.466;18.036;2023-07-20T05:35:51;99258.75;;;15.84;61.70
19208;BME280;9737;59.466;18.036;2023-07-20T05:38:19;99275.31;;;15.87;61.89
19208;BME280;9737;59.466;18.036;2023-07-20T05:40:47;99275.13;;;15.89;61.99
19208;BME280;9737;59.466;18.036;2023-07-20T05:43:14;99318.88;;;15.97;61.86
19208;BME280;9737;59.466;18.036;2023-07-20T05:45:42;99370.91;;;16.11;61.93
19208;BME280;9737;59.466;18.036;2023-07-20T05:48:11;99459.72;;;16.32;62.08
19208;BME280;9737;59.466;18.036;2023-07-20T05:50:41;99522.53;;;16.46;62.14
19208;BME280;9737;59.466;18.036;2023-07-20T05:53:11;99586.09;;;16.62;62.10
19208;BME280;9737;59.466;18.036;2023-07-20T05:55:39;99595.97;;;16.61;62.37
19208;BME280;9737;59.466;18.036;2023-07-20T05:58:07;99594.97;;;16.62;62.30
19208;BME280;9737;59.466;18.036;2023-07-20T06:00:35;99546.19;;;16.51;62.20
19208;BME280;9737;59.466;18.036;2023-07-20T06:03:02;99534.09;;;16.47;62.39
19208;BME280;9737;59.466;18.036;2023-07-20T06:05:30;99517.50;;;16.43;62.35
19208;BME280;9737;59.466;18.036;2023-07-20T06:07:58;99527.06;;;16.46;62.43
19208;BME280;9737;59.466;18.036;2023-07-20T06:10:28;99560.28;;;16.45;62.48
19208;BME280;9737;59.466;18.036;2023-07-20T06:12:56;99604.03;;;16.61;62.62
19208;BME280;9737;59.466;18.036;2023-07-20T06:15:25;99607.56;;;16.62;62.64
19208;BME280;9737;59.466;18.036;2023-07-20T06:17:54;99608.22;;;16.64;62.49
19208;BME280;9737;59.466;18.036;2023-07-20T06:20:23;99634.56;;;16.68;62.59
19208;BME280;9737;59.466;18.036;2023-07-20T06:22:51;99731.19;;;16.93;62.67
19208;BME280;9737;59.466;18.036;2023-07-20T06:25:19;99814.97;;;17.13;62.64
19208;BME280;9737;59.466;18.036;2023-07-20T06:27:49;99848.19;;;17.20;62.74
19208;BME280;9737;59.466;18.036;2023-07-20T06:30:17;99887.66;;;17.27;62.77
19208;BME280;9737;59.466;18.036;2023-07-20T06:32:45;99809.94;;;17.10;62.72
19208;BME280;9737;59.466;18.036;2023-07-20T06:35:14;99789.44;;;17.00;62.87
19208;BME280;9737;59.466;18.036;2023-07-20T06:37:42;99854.59;;;17.19;62.79
19208;BME280;9737;59.466;18.036;2023-07-20T06:40:11;99822.00;;;17.14;62.96
19208;BME280;9737;59.466;18.036;2023-07-20T06:42:41;99859.78;;;17.20;62.82
19208;BME280;9737;59.466;18.036;2023-07-20T06:45:14;99728.38;;;16.86;62.94
19208;BME280;9737;59.466;18.036;2023-07-20T06:47:42;99729.88;;;16.89;62.90
19208;BME280;9737;59.466;18.036;2023-07-20T06:50:10;99708.06;;;16.84;63.11
19208;BME280;9737;59.466;18.036;2023-07-20T06:52:43;99751.19;;;16.90;63.01
19208;BME280;9737;59.466;18.036;2023-07-20T06:55:13;99851.91;;;17.19;62.91
19208;BME280;9737;59.466;18.036;2023-07-20T06:57:41;99898.91;;;17.31;62.98
19208;BME280;9737;59.466;18.036;2023-07-20T07:00:16;99942.59;;;17.41;63.05
19208;BME280;9737;59.466;18.036;2023-07-20T07:02:44;99980.22;;;17.49;63.05
19208;BME280;9737;59.466;18.036;2023-07-20T07:05:16;100109.00;;;17.77;63.12
19208;BME280;9737;59.466;18.036;2023-07-20T07:07:47;100214.63;;;18.03;63.17
19208;BME280;9737;59.466;18.036;2023-07-20T07:10:15;100361.53;;;18.38;63.31
19208;BME280;9737;59.466;18.036;2023-07-20T07:12:43;100445.91;;;18.55;63.25
19208;BME280;9737;59.466;18.036;2023-07-20T07:15:11;100303.97;;;18.23;63.30
19208;BME280;9737;59.466;18.036;2023-07-20T07:17:40;100324.19;;;18.27;63.27
19208;BME280;9737;59.466;18.036;2023-07-20T07:20:10;100396.03;;;18.43;63.35
19208;BME280;9737;59.466;18.036;2023-07-20T07:22:47;100381.91;;;18.41;63.31
19208;BME280;9737;59.466;18.036;2023-07-20T07:25:20;100451.97;;;18.57;63.27
19208;BME280;9737;59.466;18.036;2023-07-20T07:27:49;100370.63;;;18.37;63.42
19208;BME280;9737;59.466;18.036;2023-07-20T07:30:18;100381.22;;;18.39;63.33
19208;BME280;9737;59.466;18.036;2023-07-20T07:32:47;100540.44;;;18.78;63.39
19208;BME280;9737;59.466;18.036;2023-07-20T07:35:15;100484.34;;;18.65;63.36
19208;BME280;9737;59.466;18.036;2023-07-20T07:37:43;100403.13;;;18.44;63.50
19208;BME280;9737;59.466;18.036;2023-07-20T07:40:33;100402.28;;;18.43;63.45
19208;BME280;9737;59.466;18.036;2023-07-20T07:43:00;100361.03;;;18.35;63.39
19208;BME280;9737;59.466;18.036;2023-07-20T07:45:28;100528.16;;;18.75;63.38
19208;BME280;9737;59.466;18.036;2023-07-20T07:47:57;100633.50;;;18.98;63.29
19208;BME280;9737;59.466;18.036;2023-07-20T07:50:25;100580.06;;;18.85;63.41
19208;BME280;9737;59.466;18.036;2023-07-20T07:52:54;100457.69;;;18.54;63.53
19208;BME280;9737;59.466;18.036;2023-07-20T07:55:21;100588.84;;;18.87;63.33
19208;BME280;9737;59.466;18.036;2023-07-20T07:57:49;100720.38;;;19.18;63.35
19208;BME280;9737;59.466;18.036;2023-07-20T08:00:18;100725.75;;;19.18;63.34
19208;BME280;9737;59.466;18.036;2023-07-20T08:02:46;100472.34;;;18.60;63.49
19208;BME280;9737;59.466;18.036;2023-07-20T08:05:17;100427.69;;;18.49;63.68
19208;BME280;9737;59.466;18.036;2023-07-20T08:07:45;100467.97;;;18.58;63.34
19208;BME280;9737;59.466;18.036;2023-07-20T08:10:13;100676.50;;;19.08;63.36
19208;BME280;9737;59.466;18.036;2023-07-20T08:12:41;100902.97;;;19.60;63.36
19208;BME280;9737;59.466;18.036;2023-07-20T08:15:11;101047.75;;;19.95;63.46
19208;BME280;9737;59.466;18.036;2023-07-20T08:17:41;101022.56;;;19.86;63.54
19208;BME280;9737;59.466;18.036;2023-07-20T08:20:09;101057.41;;;19.97;63.56
19208;BME280;9737;59.466;18.036;2023-07-20T08:22:40;100960.25;;;19.71;63.48
19208;BME280;9737;59.466;18.036;2023-07-20T08:25:08;100896.91;;;19.58;63.36
19208;BME280;9737;59.466;18.036;2023-07-20T08:27:37;100960.75;;;19.75;63.35
19208;BME280;9737;59.466;18.036;2023-07-20T08:30:05;101117.22;;;20.10;63.35
19208;BME280;9737;59.466;18.036;2023-07-20T08:32:34;101243.03;;;20.39;63.33
19208;BME280;9737;59.466;18.036;2023-07-20T08:35:02;101328.66;;;20.56;63.41
19208;BME280;9737;59.466;18.036;2023-07-20T08:37:32;101162.34;;;20.18;63.39
19208;BME280;9737;59.466;18.036;2023-07-20T08:40:01;101007.69;;;19.82;63.37
19208;BME280;9737;59.466;18.036;2023-07-20T08:42:35;100863.63;;;19.49;63.24
19208;BME280;9737;59.466;18.036;2023-07-20T08:45:06;100724.06;;;19.17;63.17
19208;BME280;9737;59.466;18.036;2023-07-20T08:47:36;100678.34;;;19.07;63.19
19208;BME280;9737;59.466;18.036;2023-07-20T08:50:07;100588.00;;;18.87;63.15
19208;BME280;9737;59.466;18.036;2023-07-20T08:52:35;100609.91;;;18.92;63.21
19208;BME280;9737;59.466;18.036;2023-07-20T08:55:05;100561.53;;;18.82;62.93
19208;BME280;9737;59.466;18.036;2023-07-20T08:57:33;100533.53;;;18.75;62.99
19208;BME280;9737;59.466;18.036;2023-07-20T09:00:03;100499.50;;;18.66;63.01
19208;BME280;9737;59.466;18.036;2023-07-20T09:02:36;100471.50;;;18.59;62.97
19208;BME280;9737;59.466;18.036;2023-07-20T09:05:08;100501.19;;;18.67;62.92
19208;BME280;9737;59.466;18.036;2023-07-20T09:07:39;100484.34;;;18.65;62.69
19208;BME280;9737;59.466;18.036;2023-07-20T09:10:08;100532.53;;;18.76;62.85
19208;BME280;9737;59.466;18.036;2023-07-20T09:12:37;100499.34;;;18.68;62.92
19208;BME280;9737;59.466;18.036;2023-07-20T09:15:06;100494.13;;;18.66;62.82
19208;BME280;9737;59.466;18.036;2023-07-20T09:17:34;100821.94;;;19.43;62.62
19208;BME280;9737;59.466;18.036;2023-07-20T09:20:04;101183.03;;;20.27;62.98
19208;BME280;9737;59.466;18.036;2023-07-20T09:22:38;101206.00;;;20.31;62.88
19208;BME280;9737;59.466;18.036;2023-07-20T09:25:11;101275.53;;;20.47;62.82
19208;BME280;9737;59.466;18.036;2023-07-20T09:27:40;101398.75;;;20.76;62.86
19208;BME280;9737;59.466;18.036;2023-07-20T09:30:10;101193.66;;;20.29;62.92
19208;BME280;9737;59.466;18.036;2023-07-20T09:32:45;101073.28;;;20.00;62.80
19208;BME280;9737;59.466;18.036;2023-07-20T09:35:17;100899.28;;;19.61;62.79
19208;BME280;9737;59.466;18.036;2023-07-20T09:37:50;100814.03;;;19.42;62.79
19208;BME280;9737;59.466;18.036;2023-07-20T09:40:41;100930.88;;;19.68;62.54
19208;BME280;9737;59.466;18.036;2023-07-20T09:43:12;101077.19;;;20.06;62.65
19208;BME280;9737;59.466;18.036;2023-07-20T09:45:43;101685.81;;;21.44;62.59
19208;BME280;9737;59.466;18.036;2023-07-20T09:48:14;102127.50;;;22.42;62.52
19208;BME280;9737;59.466;18.036;2023-07-20T09:50:49;102089.47;;;22.34;62.66
19208;BME280;9737;59.466;18.036;2023-07-20T09:53:18;101961.38;;;22.05;62.51
19208;BME280;9737;59.466;18.036;2023-07-20T09:55:47;101908.38;;;21.92;62.47
19208;BME280;9737;59.466;18.036;2023-07-20T09:58:17;101850.16;;;21.79;62.72
19208;BME280;9737;59.466;18.036;2023-07-20T10:00:45;101914.94;;;21.90;62.37
19208;BME280;9737;59.466;18.036;2023-07-20T10:03:20;101812.16;;;21.71;62.45
19208;BME280;9737;59.466;18.036;2023-07-20T10:05:51;101798.78;;;21.69;62.62
19208;BME280;9737;59.466;18.036;2023-07-20T10:08:24;101557.31;;;21.12;62.35
19208;BME280;9737;59.466;18.036;2023-07-20T10:10:57;101447.03;;;20.88;62.25
19208;BME280;9737;59.466;18.036;2023-07-20T10:13:26;101164.56;;;20.23;62.13
19208;BME280;9737;59.466;18.036;2023-07-20T10:15:59;100994.72;;;19.86;61.94
19208;BME280;9737;59.466;18.036;2023-07-20T10:18:33;100811.16;;;19.43;61.94
19208;BME280;9737;59.466;18.036;2023-07-20T10:21:03;100718.03;;;19.23;61.89
19208;BME280;9737;59.466;18.036;2023-07-20T10:23:37;100705.88;;;19.19;61.83
19208;BME280;9737;59.466;18.036;2023-07-20T10:26:08;100753.09;;;19.31;61.87
19208;BME280;9737;59.466;18.036;2023-07-20T10:28:38;100956.75;;;19.79;61.84
19208;BME280;9737;59.466;18.036;2023-07-20T10:31:07;101259.16;;;20.49;61.63
19208;BME280;9737;59.466;18.036;2023-07-20T10:33:36;101333.13;;;20.65;61.60
19208;BME280;9737;59.466;18.036;2023-07-20T10:36:05;102050.81;;;22.32;61.63
19208;BME280;9737;59.466;18.036;2023-07-20T10:38:40;103046.16;;;24.54;61.52
19208;BME280;9737;59.466;18.036;2023-07-20T10:41:20;103816.66;;;26.20;61.70
19208;BME280;9737;59.466;18.036;2023-07-20T10:43:48;104310.19;;;27.24;61.84
19208;BME280;9737;59.466;18.036;2023-07-20T10:49:18;104661.56;;;27.95;61.88
19208;BME280;9737;59.466;18.036;2023-07-20T10:51:57;104581.88;;;27.77;61.94
19208;BME280;9737;59.466;18.036;2023-07-20T10:54:46;104527.06;;;27.68;61.48
19208;BME280;9737;59.466;18.036;2023-07-20T10:57:29;104617.28;;;27.90;61.64
19208;BME280;9737;59.466;18.036;2023-07-20T11:00:11;104872.34;;;28.40;61.19
19208;BME280;9737;59.466;18.036;2023-07-20T11:02:47;105199.97;;;29.11;61.32
19208;BME280;9737;59.466;18.036;2023-07-20T11:05:32;105567.88;;;29.89;61.10
19208;BME280;9737;59.466;18.036;2023-07-20T11:08:04;105390.63;;;29.52;61.24
19208;BME280;9737;59.466;18.036;2023-07-20T11:10:32;105053.38;;;28.82;60.96
19208;BME280;9737;59.466;18.036;2023-07-20T11:13:21;105012.78;;;28.76;60.82
19208;BME280;9737;59.466;18.036;2023-07-20T11:16:04;105168.19;;;29.09;60.39
19208;BME280;9737;59.466;18.036;2023-07-20T11:18:35;105118.59;;;29.01;60.54
19208;BME280;9737;59.466;18.036;2023-07-20T11:21:08;105465.75;;;29.73;60.25
19208;BME280;9737;59.466;18.036;2023-07-20T11:23:38;105613.38;;;30.05;60.14
19208;BME280;9737;59.466;18.036;2023-07-20T11:26:06;105449.53;;;29.70;60.31
19208;BME280;9737;59.466;18.036;2023-07-20T11:28:35;105171.81;;;29.09;60.09
19208;BME280;9737;59.466;18.036;2023-07-20T11:31:03;104608.31;;;27.99;60.16
19208;BME280;9737;59.466;18.036;2023-07-20T11:33:31;103778.34;;;26.22;59.79
19208;BME280;9737;59.466;18.036;2023-07-20T11:35:59;103300.34;;;25.22;59.56
19208;BME280;9737;59.466;18.036;2023-07-20T11:38:27;102983.59;;;24.54;59.40
19208;BME280;9737;59.466;18.036;2023-07-20T11:40:55;102730.41;;;23.99;58.89
19208;BME280;9737;59.466;18.036;2023-07-20T11:43:23;102398.91;;;23.25;59.11
19208;BME280;9737;59.466;18.036;2023-07-20T11:45:53;102155.34;;;22.72;58.68
19208;BME280;9737;59.466;18.036;2023-07-20T11:48:21;102093.19;;;22.61;58.55
19208;BME280;9737;59.466;18.036;2023-07-20T11:50:49;102077.91;;;22.60;58.21
19208;BME280;9737;59.466;18.036;2023-07-20T11:53:17;102101.81;;;22.46;58.15
19208;BME280;9737;59.466;18.036;2023-07-20T11:55:46;102044.72;;;22.48;57.86
19208;BME280;9737;59.466;18.036;2023-07-20T11:58:14;101987.56;;;22.41;57.83
19208;BME280;9737;59.466;18.036;2023-07-20T12:00:44;101922.03;;;22.28;57.80
19208;BME280;9737;59.466;18.036;2023-07-20T12:03:13;101852.41;;;22.11;57.71
19208;BME280;9737;59.466;18.036;2023-07-20T12:05:41;101972.28;;;22.40;57.63
19208;BME280;9737;59.466;18.036;2023-07-20T12:08:27;102157.00;;;22.82;57.48
19208;BME280;9737;59.466;18.036;2023-07-20T12:10:55;102160.47;;;22.84;57.49
19208;BME280;9737;59.466;18.036;2023-07-20T12:13:23;102104.50;;;22.74;57.48
19208;BME280;9737;59.466;18.036;2023-07-20T12:15:52;102078.00;;;22.68;57.46
19208;BME280;9737;59.466;18.036;2023-07-20T12:18:34;102040.81;;;22.60;57.09
19208;BME280;9737;59.466;18.036;2023-07-20T12:21:03;102021.28;;;22.56;56.85
19208;BME280;9737;59.466;18.036;2023-07-20T12:23:35;102003.59;;;22.52;56.86
19208;BME280;9737;59.466;18.036;2023-07-20T12:26:06;102157.28;;;22.89;56.66
19208;BME280;9737;59.466;18.036;2023-07-20T12:28:36;102005.00;;;22.56;56.86
19208;BME280;9737;59.466;18.036;2023-07-20T12:31:06;101793.09;;;22.08;56.58
19208;BME280;9737;59.466;18.036;2023-07-20T12:33:35;101593.94;;;21.60;56.44
19208;BME280;9737;59.466;18.036;2023-07-20T12:36:03;101450.41;;;21.26;56.35
19208;BME280;9737;59.466;18.036;2023-07-20T12:38:31;101488.03;;;21.37;56.33
19208;BME280;9737;59.466;18.036;2023-07-20T12:41:00;101630.75;;;21.71;56.33
19208;BME280;9737;59.466;18.036;2023-07-20T12:43:28;101916.22;;;22.41;56.09
19208;BME280;9737;59.466;18.036;2023-07-20T12:45:57;102517.66;;;23.79;56.00
19208;BME280;9737;59.466;18.036;2023-07-20T12:48:25;103140.09;;;25.17;56.15
19208;BME280;9737;59.466;18.036;2023-07-20T12:50:55;103792.94;;;26.63;56.31
19208;BME280;9737;59.466;18.036;2023-07-20T12:53:22;104079.75;;;27.24;56.40
19208;BME280;9737;59.466;18.036;2023-07-20T12:55:50;103959.09;;;26.98;56.11
19208;BME280;9737;59.466;18.036;2023-07-20T12:58:18;103845.69;;;26.73;55.95
19208;BME280;9737;59.466;18.036;2023-07-20T13:00:46;103925.13;;;26.91;55.87
19208;BME280;9737;59.466;18.036;2023-07-20T13:03:14;104283.25;;;27.72;55.60
19208;BME280;9737;59.466;18.036;2023-07-20T13:05:59;104444.47;;;28.06;55.76
19208;BME280;9737;59.466;18.036;2023-07-20T13:08:30;104402.47;;;27.96;55.54
19208;BME280;9737;59.466;18.036;2023-07-20T13:10:57;104031.09;;;27.17;55.72